createdAt,value
2022-08-25T00:00:34.997Z,100485.00
2022-08-25T00:05:37.753Z,100483.47
2022-08-25T00:10:41.755Z,100480.41
2022-08-25T00:15:44.036Z,100484.06
2022-08-25T00:20:49.077Z,100482.13
2022-08-25T00:25:51.550Z,100482.84
2022-08-25T00:30:53.792Z,100484.03
2022-08-25T00:35:56.430Z,100474.41
2022-08-25T00:41:07.936Z,100481.50
2022-08-25T00:46:10.974Z,100479.66
2022-08-25T00:51:17.093Z,100480.56
2022-08-25T00:56:19.635Z,100481.09
2022-08-25T01:01:24.175Z,100484.72
2022-08-25T01:06:31.364Z,100487.19
2022-08-25T01:11:35.132Z,100479.31
2022-08-25T01:16:38.981Z,100479.09
2022-08-25T01:21:45.335Z,100479.91
2022-08-25T01:26:47.884Z,100471.22
2022-08-25T01:31:58.889Z,100473.81
2022-08-25T01:37:01.291Z,100478.50
2022-08-25T01:42:04.272Z,100466.19
2022-08-25T01:47:07.907Z,100477.34
2022-08-25T01:52:21.866Z,100476.41
2022-08-25T01:57:24.399Z,100474.47
2022-08-25T02:02:26.582Z,100472.47
2022-08-25T02:07:28.953Z,100477.38
2022-08-25T02:12:32.704Z,100474.34
2022-08-25T02:17:54.834Z,100476.78
2022-08-25T02:22:57.254Z,100486.63
2022-08-25T02:27:59.937Z,100465.13
2022-08-25T02:33:02.376Z,100475.34
2022-08-25T02:38:05.017Z,100481.34
2022-08-25T02:43:07.278Z,100477.00
2022-08-25T02:48:09.403Z,100469.13
2022-08-25T02:53:12.491Z,100464.53
2022-08-25T02:58:15.829Z,100471.00
2022-08-25T03:03:18.182Z,100461.00
2022-08-25T03:08:21.338Z,100474.66
2022-08-25T03:13:23.549Z,100471.88
2022-08-25T03:18:25.782Z,100465.63
2022-08-25T03:23:27.902Z,100462.75
2022-08-25T03:28:33.061Z,100468.53
2022-08-25T03:33:36.478Z,100471.22
2022-08-25T03:38:38.971Z,100464.84
2022-08-25T03:43:41.595Z,100462.75
2022-08-25T03:48:43.732Z,100470.97
2022-08-25T03:53:45.902Z,100466.00
2022-08-25T03:58:48.068Z,100459.78
2022-08-25T04:03:50.411Z,100450.19
2022-08-25T04:08:55.625Z,100456.53
2022-08-25T04:13:59.491Z,100454.94
2022-08-25T04:19:05.992Z,100455.31
2022-08-25T04:24:10.575Z,100442.31
2022-08-25T04:29:14.641Z,100452.13
2022-08-25T04:34:29.890Z,100436.84
2022-08-25T04:39:33.905Z,100433.63
2022-08-25T04:44:36.090Z,100431.19
2022-08-25T04:49:38.271Z,100434.13
2022-08-25T04:54:40.476Z,100437.31
2022-08-25T04:59:42.739Z,100434.63
2022-08-25T05:04:45.155Z,100431.19
2022-08-25T05:09:47.363Z,100427.53
2022-08-25T05:14:53.439Z,100432.06
2022-08-25T05:19:55.607Z,100431.59
2022-08-25T05:24:58.065Z,100422.00
2022-08-25T05:30:00.221Z,100414.50
2022-08-25T05:35:02.480Z,100424.66
2022-08-25T05:40:07.189Z,100427.25
2022-08-25T05:45:10.008Z,100426.47
2022-08-25T05:50:18.235Z,100415.38
2022-08-25T05:55:20.674Z,100408.59
2022-08-25T06:00:22.865Z,100408.81
2022-08-25T06:05:25.454Z,100408.53
2022-08-25T06:10:28.547Z,100407.16
2022-08-25T06:15:31.567Z,100408.91
2022-08-25T06:20:33.751Z,100401.59
2022-08-25T06:25:35.850Z,100414.34
2022-08-25T06:30:39.681Z,100417.94
2022-08-25T06:35:43.999Z,100417.69
2022-08-25T06:40:48.459Z,100406.13
2022-08-25T06:45:50.540Z,100403.34
2022-08-25T06:50:52.714Z,100402.25
2022-08-25T06:56:00.519Z,100403.31
2022-08-25T07:01:19.658Z,100390.72
2022-08-25T07:06:22.551Z,100388.19
2022-08-25T07:11:24.837Z,100391.28
2022-08-25T07:16:29.891Z,100393.75
2022-08-25T07:21:35.800Z,100391.91
2022-08-25T07:26:40.574Z,100389.59
2022-08-25T07:31:43.151Z,100380.13
2022-08-25T07:36:45.370Z,100379.94
2022-08-25T07:41:47.733Z,100373.56
2022-08-25T07:46:54.737Z,100377.59
2022-08-25T07:52:04.531Z,100369.66
2022-08-25T07:57:09.181Z,100359.72
2022-08-25T08:02:18.544Z,100369.81
2022-08-25T08:07:41.127Z,100354.53
2022-08-25T08:12:46.006Z,100338.94
2022-08-25T08:17:48.205Z,100332.34
2022-08-25T08:22:50.502Z,100331.44
2022-08-25T08:28:01.725Z,100328.31
2022-08-25T08:33:10.065Z,100334.13
2022-08-25T08:38:18.459Z,100325.16
2022-08-25T08:43:24.999Z,100320.53
2022-08-25T08:48:50.036Z,100325.50
2022-08-25T08:54:01.154Z,100331.06
2022-08-25T08:59:09.744Z,100318.69
2022-08-25T09:04:20.251Z,100311.47
2022-08-25T09:09:29.686Z,100311.59
2022-08-25T09:14:43.150Z,100306.69
2022-08-25T09:20:18.389Z,100297.84
2022-08-25T09:31:01.917Z,100283.94
2022-08-25T09:36:06.455Z,100285.03
2022-08-25T09:41:15.654Z,100287.31
2022-08-25T09:46:28.014Z,100274.97
2022-08-25T09:51:38.252Z,100281.28
2022-08-25T09:56:54.223Z,100271.59
2022-08-25T10:01:59.222Z,100276.63
2022-08-25T10:07:03.907Z,100262.09
2022-08-25T10:12:30.005Z,100254.06
2022-08-25T10:17:33.430Z,100256.31
2022-08-25T10:22:37.031Z,100250.91
2022-08-25T10:27:47.528Z,100256.91
2022-08-25T10:32:57.374Z,100254.47
2022-08-25T10:38:23.967Z,100256.19
2022-08-25T10:43:41.351Z,100242.94
2022-08-25T10:49:02.990Z,100234.41
2022-08-25T10:54:41.827Z,100231.38
2022-08-25T10:59:44.132Z,100218.91
2022-08-25T11:05:24.726Z,100226.88
2022-08-25T11:10:38.696Z,100213.72
2022-08-25T11:16:13.620Z,100200.88
2022-08-25T11:21:23.457Z,100193.69
2022-08-25T11:26:36.821Z,100170.44
2022-08-25T11:31:53.526Z,100175.56
2022-08-25T11:37:01.264Z,100180.72
2022-08-25T11:42:36.678Z,100176.00
2022-08-25T11:47:47.581Z,100165.78
2022-08-25T11:52:56.524Z,100172.09
2022-08-25T11:58:37.411Z,100173.66
2022-08-25T12:03:39.404Z,100151.25
2022-08-25T12:08:50.925Z,100164.00
2022-08-25T12:13:53.165Z,100154.75
2022-08-25T12:19:29.432Z,100161.16
2022-08-25T12:24:48.282Z,100165.81
2022-08-25T12:29:50.688Z,100146.41
2022-08-25T12:35:16.038Z,100145.66
2022-08-25T12:40:31.857Z,100148.28
2022-08-25T12:45:47.694Z,100139.19
2022-08-25T12:50:57.852Z,100138.56
2022-08-25T12:56:28.686Z,100130.38
2022-08-25T13:01:58.418Z,100125.75
2022-08-25T13:07:08.128Z,100122.09
2022-08-25T13:12:38.140Z,100121.06
2022-08-25T13:17:40.093Z,100112.03
2022-08-25T13:22:47.485Z,100098.78
2022-08-25T13:27:57.394Z,100099.09
2022-08-25T13:33:00.842Z,100084.56
2022-08-25T13:38:16.116Z,100086.22
2022-08-25T13:43:18.258Z,100080.44
2022-08-25T13:48:38.375Z,100082.16
2022-08-25T13:53:40.899Z,100068.09
2022-08-25T13:58:46.788Z,100076.81
2022-08-25T14:03:49.040Z,100064.53
2022-08-25T14:09:00.487Z,100074.09
2022-08-25T14:14:09.624Z,100067.31
2022-08-25T14:19:19.771Z,100064.03
2022-08-25T14:24:23.576Z,100066.72
2022-08-25T14:29:26.508Z,100061.03
2022-08-25T14:34:33.364Z,100062.69
2022-08-25T14:39:35.508Z,100054.19
2022-08-25T14:44:38.030Z,100053.56
2022-08-25T14:49:45.930Z,100049.69
2022-08-25T14:54:48.206Z,100049.69
2022-08-25T14:59:50.407Z,100041.91
2022-08-25T15:05:02.521Z,100047.25
2022-08-25T15:10:06.204Z,100045.56
2022-08-25T15:15:10.006Z,100040.38
2022-08-25T15:20:15.484Z,100039.63
2022-08-25T15:25:18.322Z,100032.38
2022-08-25T15:30:20.455Z,100032.59
2022-08-25T15:35:22.782Z,100032.56
2022-08-25T15:40:31.561Z,100032.94
2022-08-25T15:45:36.235Z,100031.50
2022-08-25T15:50:38.816Z,100030.22
2022-08-25T15:55:41.265Z,100033.53
2022-08-25T16:00:45.096Z,100035.19
2022-08-25T16:05:58.237Z,100031.47
2022-08-25T16:11:00.821Z,100033.72
2022-08-25T16:16:03.791Z,100034.66
2022-08-25T16:21:13.136Z,100046.34
2022-08-25T16:26:15.974Z,100042.94
2022-08-25T16:31:18.831Z,100047.00
2022-08-25T16:36:24.486Z,100042.41
2022-08-25T16:41:34.333Z,100053.03
2022-08-25T16:46:38.121Z,100038.09
2022-08-25T16:51:43.545Z,100056.47
2022-08-25T16:56:45.903Z,100054.56
2022-08-25T17:01:48.462Z,100041.81
2022-08-25T17:06:53.688Z,100063.50
2022-08-25T17:11:57.359Z,100040.28
2022-08-25T17:16:59.629Z,100064.38
2022-08-25T17:22:01.820Z,100068.34
2022-08-25T17:27:05.579Z,100065.75
2022-08-25T17:32:07.790Z,100057.38
2022-08-25T17:37:10.321Z,100041.34
2022-08-25T17:42:12.595Z,100040.09
2022-08-25T17:47:14.697Z,100040.69
2022-08-25T17:52:21.501Z,100041.00
2022-08-25T17:57:27.224Z,100041.63
2022-08-25T18:02:30.317Z,100044.63
2022-08-25T18:07:32.961Z,100046.84
2022-08-25T18:12:37.671Z,100037.31
2022-08-25T18:17:39.885Z,100044.97
2022-08-25T18:22:44.089Z,100040.59
2022-08-25T18:27:46.371Z,100036.50
2022-08-25T18:32:48.865Z,100031.59
2022-08-25T18:38:10.053Z,100020.44
2022-08-25T18:43:14.407Z,100041.63
2022-08-25T18:48:18.076Z,100035.13
2022-08-25T18:53:30.721Z,100034.84
2022-08-25T18:58:45.672Z,100035.34
2022-08-25T19:03:48.003Z,100020.16
2022-08-25T19:08:50.399Z,100025.34
2022-08-25T19:14:12.294Z,100026.16
2022-08-25T19:19:15.113Z,100014.44
2022-08-25T19:24:18.177Z,100020.16
2022-08-25T19:29:20.336Z,100014.16
2022-08-25T19:34:30.435Z,100022.63
2022-08-25T19:39:35.190Z,100026.16
2022-08-25T19:44:41.823Z,100021.00
2022-08-25T19:49:44.017Z,100012.06
2022-08-25T19:54:46.715Z,100016.97
2022-08-25T19:59:49.664Z,100011.00
2022-08-25T20:04:55.245Z,100015.91
2022-08-25T20:09:59.398Z,100014.53
2022-08-25T20:15:02.569Z,100023.78
2022-08-25T20:20:09.594Z,100015.94
2022-08-25T20:25:17.800Z,100018.59
2022-08-25T20:30:27.544Z,100022.97
2022-08-25T20:35:29.899Z,100016.13
2022-08-25T20:40:32.692Z,100024.25
2022-08-25T20:45:34.782Z,100014.16
2022-08-25T20:50:38.808Z,100028.28
2022-08-25T20:55:43.669Z,100026.88
2022-08-25T21:00:46.549Z,100017.59
2022-08-25T21:05:53.932Z,100001.22
2022-08-25T21:10:56.561Z,100015.06
2022-08-25T21:16:02.152Z,100026.75
2022-08-25T21:21:14.708Z,100033.19
2022-08-25T21:26:25.246Z,100029.59
2022-08-25T21:31:29.587Z,100013.75
2022-08-25T21:36:32.390Z,100024.88
2022-08-25T21:41:36.847Z,100019.66
2022-08-25T21:46:39.447Z,100028.00
2022-08-25T21:51:44.710Z,100020.84
2022-08-25T21:56:55.006Z,100026.56
2022-08-25T22:02:04.463Z,100034.09
2022-08-25T22:07:08.115Z,100025.50
2022-08-25T22:12:10.287Z,100021.09
2022-08-25T22:17:16.937Z,100022.38
2022-08-25T22:22:23.947Z,100015.84
2022-08-25T22:27:26.243Z,100021.78
2022-08-25T22:32:28.336Z,100023.38
2022-08-25T22:37:30.658Z,100019.47
2022-08-25T22:42:32.842Z,100024.03
2022-08-25T22:47:35.402Z,100026.69
2022-08-25T22:52:38.257Z,100013.75
2022-08-25T22:57:45.102Z,100023.28
2022-08-25T23:02:47.530Z,100025.47
2022-08-25T23:07:50.646Z,100024.13
2022-08-25T23:12:52.845Z,100002.91
2022-08-25T23:17:54.970Z,100021.94
2022-08-25T23:22:57.066Z,100008.38
2022-08-25T23:27:59.363Z,100018.50
2022-08-25T23:33:01.632Z,99996.97
2022-08-25T23:38:03.754Z,100012.88
2022-08-25T23:43:06.728Z,100008.59
2022-08-25T23:48:09.305Z,100008.53
2022-08-25T23:53:12.318Z,100017.56
2022-08-25T23:58:15.523Z,100013.94
